Ward Cove, Alaska
Current Conditions -  °F | °C
As of 5:53 PM on Monday 20 Oct 2014 (Local Time) from PAKT Reporting Station
Broken Clouds Broken Clouds  
Wind Chill: 52°   Ceiling: 3300
Heat Index: 52°   Visibility: 10mi
Dew Point: 48°   Wind: 7mph
Humidity: 86%   Direction: 120°ESE
Pressure: 29.44"   Gusts: NA
Location:  55.4°N, 131.74°W
Report Text: PAKT 210153Z 12006KT 10SM SCT026 BKN033 11/09 A2944 RMK AO2 SLP970 T01110089
Loading
Personal Weather Stations






























Interactive Weather Map
Tropical Storm Tracking
New forecast layout! Learn more

10-Day Weather Forecast

Advertisements
Track Severe Weather on mobile